Time;durP1;ratioP1;P1;durP2;ratioP2;P2;SDS_P1;SDS_P2;PMS_P1;PMS_P2;Temp;Humidity;BMP_temperature;BMP_pressure;BME280_temperature;BME280_humidity;BME280_pressure;Samples;Min_cycle;Max_cycle;Signal;HPM_P1;HPM_P2
2021/09/12 00:02:10;;;;;;;15.77;8.95;;;;;;;11.99;100.00;95778.38;5020793;28;20470;-81
2021/09/12 00:04:35;;;;;;;15.20;9.00;;;;;;;12.10;100.00;95782.53;5024989;28;20126;-81
2021/09/12 00:07:01;;;;;;;17.27;9.68;;;;;;;12.24;100.00;95785.34;5027828;28;20045;-81
2021/09/12 00:09:27;;;;;;;16.60;8.57;;;;;;;12.07;100.00;95785.72;5028398;28;20517;-81
2021/09/12 00:11:52;;;;;;;20.27;8.80;;;;;;;11.93;100.00;95775.75;5025413;28;20527;-81
2021/09/12 00:14:18;;;;;;;14.95;8.50;;;;;;;12.01;100.00;95776.25;5028869;28;20435;-81
2021/09/12 00:16:43;;;;;;;15.93;9.20;;;;;;;11.91;100.00;95767.28;5027779;28;20068;-81
2021/09/12 00:19:09;;;;;;;17.77;8.63;;;;;;;11.91;100.00;95772.56;5027459;28;20033;-81
2021/09/12 00:21:35;;;;;;;14.35;8.65;;;;;;;11.87;100.00;95766.25;5012186;28;20042;-81
2021/09/12 00:24:00;;;;;;;15.32;9.15;;;;;;;11.94;100.00;95766.78;5022655;28;20111;-81
2021/09/12 00:26:26;;;;;;;16.17;9.00;;;;;;;12.00;100.00;95769.41;5027874;28;20050;-82
2021/09/12 00:28:51;;;;;;;14.52;9.30;;;;;;;12.01;100.00;95765.69;5028322;28;20041;-81
2021/09/12 00:31:17;;;;;;;19.23;8.60;;;;;;;11.93;100.00;95759.91;5009763;28;20824;-82
2021/09/12 00:33:42;;;;;;;19.73;9.27;;;;;;;11.96;100.00;95764.66;5024506;28;20069;-81
2021/09/12 00:36:08;;;;;;;14.35;9.02;;;;;;;11.94;100.00;95766.00;5013920;28;20041;-81
2021/09/12 00:38:33;;;;;;;16.85;9.15;;;;;;;11.93;100.00;95759.13;5030681;28;20033;-81
2021/09/12 00:41:00;;;;;;;15.80;9.30;;;;;;;11.99;100.00;95759.91;5029124;28;20045;-80
2021/09/12 00:43:26;;;;;;;24.17;9.13;;;;;;;12.03;100.00;95760.94;5027113;28;20049;-82
2021/09/12 00:45:54;;;;;;;15.73;9.43;;;;;;;12.00;100.00;95770.19;5031194;28;20489;-81
2021/09/12 00:48:19;;;;;;;13.60;9.02;;;;;;;11.88;100.00;95762.56;5032018;28;20045;-81
2021/09/12 00:50:45;;;;;;;19.25;9.70;;;;;;;11.84;100.00;95772.06;5025254;28;20044;-81
2021/09/12 00:53:11;;;;;;;16.20;8.98;;;;;;;11.90;100.00;95764.94;5027335;28;20076;-82
2021/09/12 00:55:38;;;;;;;16.05;8.82;;;;;;;11.78;100.00;95773.16;5031136;28;20132;-81
2021/09/12 00:58:05;;;;;;;16.25;8.85;;;;;;;11.66;100.00;95767.41;5030689;28;20049;-81
2021/09/12 01:00:30;;;;;;;21.13;9.85;;;;;;;11.64;100.00;95778.22;5028880;28;20037;-82
2021/09/12 01:02:56;;;;;;;15.15;9.13;;;;;;;11.77;100.00;95768.94;5031345;28;20045;-81
2021/09/12 01:05:22;;;;;;;18.95;10.77;;;;;;;11.77;100.00;95767.09;5030341;28;20045;-82
2021/09/12 01:07:48;;;;;;;16.50;9.20;;;;;;;11.74;100.00;95769.50;5031078;28;20060;-82
2021/09/12 01:10:13;;;;;;;20.63;10.38;;;;;;;11.68;100.00;95778.44;5025536;28;20573;-81
2021/09/12 01:12:39;;;;;;;18.38;9.20;;;;;;;11.64;100.00;95769.50;5014223;28;20044;-82
2021/09/12 01:15:06;;;;;;;17.65;8.95;;;;;;;11.76;100.00;95764.72;5030893;28;20044;-81
2021/09/12 01:17:32;;;;;;;18.13;9.68;;;;;;;11.78;100.00;95773.16;5015630;28;20045;-82
2021/09/12 01:19:58;;;;;;;18.98;9.13;;;;;;;11.73;100.00;95770.53;5024874;28;20119;-81
2021/09/12 01:22:24;;;;;;;16.08;8.93;;;;;;;11.62;100.00;95756.59;4999837;28;20423;-81
2021/09/12 01:24:50;;;;;;;17.67;9.90;;;;;;;11.65;100.00;95752.63;5029583;28;20065;-81
2021/09/12 01:27:16;;;;;;;15.00;8.50;;;;;;;11.74;100.00;95762.34;5023195;28;20404;-81
2021/09/12 01:29:42;;;;;;;22.58;9.10;;;;;;;11.73;100.00;95768.69;5030852;28;20048;-82
2021/09/12 01:32:08;;;;;;;17.63;9.40;;;;;;;11.73;100.00;95754.72;5023646;28;20053;-82
2021/09/12 01:34:34;;;;;;;15.25;8.35;;;;;;;11.67;100.00;95761.09;5030730;28;20041;-82
2021/09/12 01:36:59;;;;;;;17.08;8.52;;;;;;;11.47;100.00;95746.13;5012583;28;20037;-82
2021/09/12 01:39:25;;;;;;;16.65;9.48;;;;;;;11.52;100.00;95744.25;5029503;28;20048;-81
2021/09/12 01:41:51;;;;;;;16.13;9.07;;;;;;;11.56;100.00;95750.56;5030516;28;20131;-82
2021/09/12 01:44:23;;;;;;;15.32;8.82;;;;;;;11.85;100.00;95755.22;5012246;28;20054;-82
2021/09/12 01:46:50;;;;;;;17.98;8.52;;;;;;;11.72;100.00;95747.84;5017956;28;20049;-82
2021/09/12 01:49:15;;;;;;;17.40;9.10;;;;;;;11.58;100.00;95756.34;5018787;28;20041;-82
2021/09/12 01:51:41;;;;;;;17.67;9.43;;;;;;;11.55;100.00;95749.00;5029572;28;20049;-82
2021/09/12 01:54:07;;;;;;;17.38;8.90;;;;;;;11.50;100.00;95741.09;5022567;28;20077;-82
2021/09/12 01:56:32;;;;;;;16.20;8.40;;;;;;;11.42;100.00;95746.91;5012447;28;20057;-82
2021/09/12 01:58:58;;;;;;;19.50;9.38;;;;;;;11.44;100.00;95747.44;5029404;28;20503;-82
2021/09/12 02:01:24;;;;;;;15.52;8.52;;;;;;;11.36;100.00;95745.34;5030392;28;20050;-82
2021/09/12 02:03:49;;;;;;;17.30;9.00;;;;;;;11.30;100.00;95741.16;5023551;28;20073;-82
2021/09/12 02:06:16;;;;;;;19.58;8.88;;;;;;;11.32;100.00;95744.31;5029789;28;20564;-82
2021/09/12 02:08:41;;;;;;;16.05;8.45;;;;;;;11.50;100.00;95746.38;5030531;28;20133;-82
2021/09/12 02:11:07;;;;;;;17.92;8.82;;;;;;;11.33;100.00;95751.16;5029801;28;20538;-82
2021/09/12 02:13:33;;;;;;;16.38;8.93;;;;;;;11.23;100.00;95746.69;5030348;28;20053;-82
2021/09/12 02:15:58;;;;;;;17.25;8.85;;;;;;;11.53;100.00;95750.31;5029175;28;20077;-82
2021/09/12 02:18:24;;;;;;;14.00;8.35;;;;;;;11.34;100.00;95752.75;5029855;28;20052;-82
2021/09/12 02:20:49;;;;;;;13.50;8.02;;;;;;;11.21;100.00;95741.69;5022224;28;20041;-82
2021/09/12 02:23:15;;;;;;;16.17;9.15;;;;;;;11.12;100.00;95740.69;5019791;28;20076;-82
2021/09/12 02:25:40;;;;;;;14.05;8.35;;;;;;;11.30;100.00;95741.16;5026373;28;20033;-81
2021/09/12 02:28:06;;;;;;;13.43;7.88;;;;;;;11.56;100.00;95744.50;5030057;28;20064;-81
2021/09/12 02:30:32;;;;;;;12.45;7.40;;;;;;;11.53;100.00;95745.81;5020581;28;20072;-81
2021/09/12 02:32:58;;;;;;;12.98;8.15;;;;;;;11.52;100.00;95738.19;5009382;28;20046;-81
2021/09/12 02:35:24;;;;;;;14.07;7.80;;;;;;;11.41;100.00;95743.50;5023088;28;20041;-82
2021/09/12 02:37:49;;;;;;;17.05;7.65;;;;;;;11.23;100.00;95747.50;5029709;28;20041;-82
2021/09/12 02:40:15;;;;;;;16.85;8.05;;;;;;;11.18;100.00;95744.88;5027753;28;20503;-81
2021/09/12 02:42:40;;;;;;;18.55;7.95;;;;;;;11.11;100.00;95751.50;5029876;28;20041;-82
2021/09/12 02:45:10;;;;;;;16.13;7.63;;;;;;;11.06;100.00;95741.72;5027456;28;20447;-82
2021/09/12 02:47:36;;;;;;;13.68;7.53;;;;;;;11.06;100.00;95752.25;5011725;28;20056;-81
2021/09/12 02:50:02;;;;;;;15.98;7.65;;;;;;;11.11;100.00;95756.75;5020306;28;20128;-81
2021/09/12 02:52:28;;;;;;;14.85;8.02;;;;;;;11.08;100.00;95760.69;5026754;28;20041;-82
2021/09/12 02:54:53;;;;;;;16.48;7.45;;;;;;;11.29;100.00;95760.66;5019404;28;20041;-82
2021/09/12 02:57:19;;;;;;;13.38;7.18;;;;;;;11.32;100.00;95754.84;5027742;28;20041;-81
2021/09/12 02:59:44;;;;;;;12.75;7.50;;;;;;;11.09;100.00;95752.53;5010453;28;20041;-82
2021/09/12 03:02:10;;;;;;;14.73;7.90;;;;;;;11.05;100.00;95750.72;5020771;28;20499;-81
2021/09/12 03:04:36;;;;;;;17.45;7.45;;;;;;;10.97;100.00;95738.84;5016058;28;20049;-81
2021/09/12 03:07:01;;;;;;;15.77;7.95;;;;;;;10.92;100.00;95742.28;5020056;28;20198;-81
2021/09/12 03:09:27;;;;;;;13.48;7.65;;;;;;;10.92;100.00;95747.56;5028317;28;20038;-81
2021/09/12 03:11:52;;;;;;;13.32;8.02;;;;;;;10.93;100.00;95753.59;5017100;28;20534;-81
2021/09/12 03:14:19;;;;;;;14.73;8.65;;;;;;;11.10;100.00;95748.03;5027034;28;20037;-81
2021/09/12 03:16:45;;;;;;;15.05;7.20;;;;;;;11.15;100.00;95750.69;5026972;28;20038;-82
2021/09/12 03:19:11;;;;;;;14.35;7.40;;;;;;;11.21;100.00;95754.09;5029443;28;20056;-82
2021/09/12 03:21:37;;;;;;;20.38;8.60;;;;;;;11.33;100.00;95751.16;5017165;28;20042;-82
2021/09/12 03:24:03;;;;;;;13.48;7.40;;;;;;;11.15;100.00;95749.88;5012704;28;20049;-82
2021/09/12 03:26:28;;;;;;;14.73;7.70;;;;;;;11.06;100.00;95747.81;5009607;28;20041;-81
2021/09/12 03:28:54;;;;;;;14.20;7.22;;;;;;;10.99;100.00;95741.22;5028619;28;20041;-81
2021/09/12 03:31:19;;;;;;;14.70;7.65;;;;;;;11.15;100.00;95745.41;5002229;28;20508;-82
2021/09/12 03:33:45;;;;;;;18.45;7.57;;;;;;;11.17;100.00;95743.28;5015961;28;20092;-81
2021/09/12 03:36:10;;;;;;;13.10;7.10;;;;;;;11.16;100.00;95746.19;5023813;28;20641;-81
2021/09/12 03:38:36;;;;;;;14.27;7.30;;;;;;;10.97;100.00;95743.34;5025761;28;20156;-82
2021/09/12 03:41:01;;;;;;;13.10;8.00;;;;;;;10.86;100.00;95738.09;5027033;28;20771;-82
2021/09/12 03:43:27;;;;;;;14.63;7.78;;;;;;;10.75;100.00;95731.25;5028250;28;20120;-82
2021/09/12 03:45:56;;;;;;;16.50;8.00;;;;;;;10.73;100.00;95728.06;5023003;28;20062;-82
2021/09/12 03:48:22;;;;;;;17.60;7.38;;;;;;;10.75;100.00;95725.97;5024971;28;20046;-82
2021/09/12 03:50:47;;;;;;;16.30;8.07;;;;;;;10.68;100.00;95720.19;5020784;28;20140;-82
2021/09/12 03:53:13;;;;;;;17.58;8.00;;;;;;;10.75;100.00;95720.72;5009323;28;20099;-82
2021/09/12 03:55:38;;;;;;;15.38;8.07;;;;;;;10.71;100.00;95724.94;5029092;28;20044;-82
2021/09/12 03:58:04;;;;;;;18.52;8.00;;;;;;;10.68;100.00;95720.97;5027207;28;20137;-82
2021/09/12 04:00:29;;;;;;;20.17;8.57;;;;;;;10.75;100.00;95733.88;5026404;28;20045;-82
2021/09/12 04:02:55;;;;;;;16.63;8.07;;;;;;;10.78;100.00;95733.34;5027610;28;20045;-82
2021/09/12 04:05:20;;;;;;;12.93;7.88;;;;;;;10.82;100.00;95731.78;5027452;28;20049;-81
2021/09/12 04:07:46;;;;;;;20.65;7.97;;;;;;;10.92;100.00;95726.47;5021421;28;20745;-82
2021/09/12 04:10:11;;;;;;;14.90;8.23;;;;;;;11.08;100.00;95734.38;5026005;28;20115;-82
2021/09/12 04:12:37;;;;;;;13.70;7.88;;;;;;;11.09;100.00;95730.66;5030852;28;20504;-82
2021/09/12 04:15:03;;;;;;;11.70;7.03;;;;;;;11.04;100.00;95738.59;5032453;28;20175;-82
2021/09/12 04:17:28;;;;;;;12.77;7.20;;;;;;;11.33;100.00;95741.41;5024872;28;20088;-82
2021/09/12 04:19:54;;;;;;;13.07;7.15;;;;;;;11.24;100.00;95735.91;5012847;28;20505;-81
2021/09/12 04:22:19;;;;;;;14.32;7.78;;;;;;;11.26;100.00;95741.69;5023476;28;20458;-81
2021/09/12 04:24:45;;;;;;;12.73;7.07;;;;;;;11.19;100.00;95741.19;5030976;28;20557;-82
2021/09/12 04:27:10;;;;;;;15.27;6.97;;;;;;;11.19;100.00;95729.84;5003802;28;20823;-82
2021/09/12 04:29:36;;;;;;;12.50;7.50;;;;;;;11.07;100.00;95733.56;5029937;28;20104;-82
2021/09/12 04:32:02;;;;;;;13.10;7.68;;;;;;;10.95;100.00;95740.97;5011834;28;20050;-81
2021/09/12 04:34:28;;;;;;;15.20;7.53;;;;;;;10.87;100.00;95734.38;5032023;28;20045;-82
2021/09/12 04:36:53;;;;;;;13.30;7.45;;;;;;;10.89;100.00;95742.03;5026855;28;20103;-82
2021/09/12 04:39:19;;;;;;;11.73;7.18;;;;;;;10.89;100.00;95736.78;5028183;28;20572;-82
2021/09/12 04:41:44;;;;;;;13.90;7.13;;;;;;;10.89;100.00;95732.28;5013834;28;20073;-82
2021/09/12 04:44:10;;;;;;;14.43;7.80;;;;;;;10.81;100.00;95735.44;5031079;28;20072;-82
2021/09/12 04:46:35;;;;;;;12.65;7.35;;;;;;;11.05;100.00;95721.72;5013328;28;20415;-81
2021/09/12 04:49:01;;;;;;;13.10;7.22;;;;;;;11.14;100.00;95729.88;5012294;28;20084;-82
2021/09/12 04:51:26;;;;;;;15.80;7.47;;;;;;;11.22;100.00;95730.13;5014027;28;20095;-81
2021/09/12 04:53:55;;;;;;;12.32;7.57;;;;;;;11.22;100.00;95734.59;5022115;28;20068;-81
2021/09/12 04:56:21;;;;;;;14.05;6.70;;;;;;;11.00;100.00;95732.25;5009743;28;20734;-81
2021/09/12 04:58:47;;;;;;;15.55;7.35;;;;;;;10.86;100.00;95737.28;5023967;28;20041;-82
2021/09/12 05:01:12;;;;;;;15.18;7.07;;;;;;;10.80;100.00;95739.13;5030684;28;20479;-82
2021/09/12 05:03:38;;;;;;;15.00;7.50;;;;;;;10.90;100.00;95744.41;5027483;28;20042;-82
2021/09/12 05:06:03;;;;;;;14.23;7.25;;;;;;;10.83;100.00;95743.88;5031417;28;20045;-82
2021/09/12 05:08:29;;;;;;;13.32;7.10;;;;;;;10.96;100.00;95736.47;5031364;28;20045;-82
2021/09/12 05:10:54;;;;;;;9.93;6.30;;;;;;;10.92;100.00;95731.75;5030679;28;20053;-82
2021/09/12 05:13:20;;;;;;;15.82;6.97;;;;;;;11.10;100.00;95737.50;5028375;28;20041;-82
2021/09/12 05:15:46;;;;;;;12.05;7.03;;;;;;;11.08;100.00;95739.63;5024993;28;20095;-82
2021/09/12 05:18:11;;;;;;;13.30;7.35;;;;;;;11.00;100.00;95732.25;5013126;28;20128;-82
2021/09/12 05:20:38;;;;;;;14.05;7.57;;;;;;;10.90;100.00;95738.34;5031555;28;20053;-82
2021/09/12 05:23:04;;;;;;;19.25;7.63;;;;;;;10.81;100.00;95743.34;5011111;28;20045;-82
2021/09/12 05:25:33;;;;;;;15.63;7.90;;;;;;;10.85;100.00;95744.41;5005605;28;20156;-82
2021/09/12 05:27:59;;;;;;;13.85;8.40;;;;;;;10.85;100.00;95741.00;5031069;28;20053;-81
2021/09/12 05:30:25;;;;;;;15.40;7.65;;;;;;;10.93;100.00;95748.31;5031215;28;20041;-81
2021/09/12 05:32:50;;;;;;;12.77;7.10;;;;;;;11.05;100.00;95750.72;5028984;28;20041;-82
2021/09/12 05:35:16;;;;;;;16.42;7.32;;;;;;;10.95;100.00;95750.69;5031120;28;20049;-82
2021/09/12 05:37:43;;;;;;;13.35;7.75;;;;;;;10.92;100.00;95752.81;5021150;28;20038;-82
2021/09/12 05:40:10;;;;;;;16.13;8.15;;;;;;;11.11;100.00;95749.63;5029720;28;20104;-82
2021/09/12 05:42:37;;;;;;;14.73;8.15;;;;;;;11.40;100.00;95741.13;5028113;28;20044;-82
2021/09/12 05:45:04;;;;;;;15.75;8.10;;;;;;;11.39;100.00;95734.28;5024163;28;20453;-82
2021/09/12 05:47:30;;;;;;;13.10;8.07;;;;;;;11.49;100.00;95744.78;5029838;28;20158;-82
2021/09/12 05:49:55;;;;;;;15.68;7.80;;;;;;;11.48;100.00;95747.69;5008222;28;20054;-82
2021/09/12 05:52:21;;;;;;;16.17;7.22;;;;;;;11.61;100.00;95753.19;5009913;28;20045;-82
2021/09/12 05:54:46;;;;;;;13.38;7.55;;;;;;;11.59;100.00;95743.97;5015352;28;20491;-81
2021/09/12 05:57:12;;;;;;;16.45;8.20;;;;;;;11.67;100.00;95755.81;5023688;28;20041;-82
2021/09/12 05:59:37;;;;;;;15.50;8.55;;;;;;;11.71;100.00;95755.00;5022490;28;20037;-82
2021/09/12 06:02:03;;;;;;;19.77;8.63;;;;;;;11.94;100.00;95753.59;5003847;28;20584;-82
2021/09/12 06:04:29;;;;;;;15.77;8.48;;;;;;;12.08;100.00;95745.06;5028710;28;20068;-82
2021/09/12 06:06:55;;;;;;;14.48;8.38;;;;;;;12.21;100.00;95749.78;5012928;28;20580;-82
2021/09/12 06:09:22;;;;;;;14.52;8.85;;;;;;;12.15;100.00;95740.28;5020506;28;20046;-82
2021/09/12 06:11:48;;;;;;;17.48;9.40;;;;;;;12.28;100.00;95750.25;5026606;28;20041;-82
2021/09/12 06:14:14;;;;;;;18.08;8.77;;;;;;;12.39;100.00;95760.72;5012371;28;20800;-81
2021/09/12 06:16:39;;;;;;;17.25;9.82;;;;;;;12.45;100.00;95751.72;5008168;28;20037;-82
2021/09/12 06:19:05;;;;;;;15.23;8.55;;;;;;;12.67;100.00;95755.78;5017848;28;20640;-82
2021/09/12 06:21:30;;;;;;;17.80;9.55;;;;;;;12.77;100.00;95760.97;5016238;28;20781;-82
2021/09/12 06:23:56;;;;;;;17.10;9.13;;;;;;;12.97;100.00;95754.72;5007115;28;20103;-82
2021/09/12 06:26:22;;;;;;;16.48;9.38;;;;;;;13.11;100.00;95752.22;5029337;28;20068;-82
2021/09/12 06:28:47;;;;;;;17.35;8.70;;;;;;;13.17;100.00;95749.28;5010352;28;20059;-82
2021/09/12 06:31:13;;;;;;;13.52;8.60;;;;;;;13.23;100.00;95751.84;5028195;28;20045;-82
2021/09/12 06:33:39;;;;;;;14.20;8.63;;;;;;;13.29;100.00;95748.88;5000397;28;20494;-82
2021/09/12 06:36:05;;;;;;;17.75;9.20;;;;;;;13.40;100.00;95751.44;5029237;28;20060;-82
2021/09/12 06:38:31;;;;;;;16.60;9.35;;;;;;;13.64;100.00;95754.84;5028910;28;20029;-82
2021/09/12 06:40:56;;;;;;;16.50;9.32;;;;;;;13.61;100.00;95752.78;5022336;28;20419;-82
2021/09/12 06:43:22;;;;;;;20.52;9.95;;;;;;;13.76;100.00;95746.50;5013985;28;20041;-82
2021/09/12 06:45:48;;;;;;;16.58;9.45;;;;;;;13.76;100.00;95753.66;5025008;28;20045;-82
2021/09/12 06:48:14;;;;;;;16.92;9.45;;;;;;;13.61;100.00;95752.78;5027399;28;20061;-81
2021/09/12 06:50:39;;;;;;;17.40;9.48;;;;;;;13.62;100.00;95754.38;5026458;28;20037;-83
2021/09/12 06:53:05;;;;;;;23.67;11.18;;;;;;;13.83;100.00;95748.81;5020014;28;20054;-82
2021/09/12 06:55:32;;;;;;;16.45;9.23;;;;;;;13.87;100.00;95749.84;5015526;28;20048;-82
2021/09/12 06:57:58;;;;;;;20.77;10.82;;;;;;;13.98;100.00;95751.28;5028148;28;20053;-82
2021/09/12 07:00:23;;;;;;;25.00;11.95;;;;;;;14.03;100.00;95761.78;5028574;28;20060;-79
2021/09/12 07:02:49;;;;;;;22.25;10.57;;;;;;;14.04;100.00;95755.44;5020586;28;20180;-83
2021/09/12 07:05:14;;;;;;;23.73;12.35;;;;;;;14.07;100.00;95751.44;5019784;28;20251;-82
2021/09/12 07:07:40;;;;;;;25.95;12.60;;;;;;;14.07;100.00;95753.28;5011064;28;20103;-82
2021/09/12 07:10:06;;;;;;;24.33;13.10;;;;;;;14.24;100.00;95758.88;5008311;28;20124;-82
2021/09/12 07:12:32;;;;;;;28.55;13.98;;;;;;;14.40;100.00;95748.84;5023314;28;20578;-82
2021/09/12 07:14:57;;;;;;;24.08;12.50;;;;;;;14.34;100.00;95758.72;5013636;28;20067;-81
2021/09/12 07:17:23;;;;;;;26.27;13.40;;;;;;;14.37;100.00;95763.44;5011155;28;20053;-81
2021/09/12 07:19:48;;;;;;;30.77;14.77;;;;;;;14.46;100.00;95760.16;5000886;28;20034;-81
2021/09/12 07:22:14;;;;;;;26.77;13.18;;;;;;;14.49;100.00;95759.56;5026369;28;20045;-81
2021/09/12 07:24:39;;;;;;;28.55;14.77;;;;;;;14.56;100.00;95766.06;5010413;28;20053;-81
2021/09/12 07:27:05;;;;;;;31.13;14.23;;;;;;;14.55;100.00;95761.06;5021013;28;20053;-81
2021/09/12 07:29:32;;;;;;;28.75;13.75;;;;;;;14.61;100.00;95767.88;5025082;28;20056;-81
2021/09/12 07:31:59;;;;;;;25.60;12.75;;;;;;;14.59;100.00;95764.72;5022942;28;20052;-81
2021/09/12 07:34:24;;;;;;;24.75;12.93;;;;;;;14.64;100.00;95766.53;5043215;28;20041;-81
2021/09/12 07:36:50;;;;;;;27.60;13.80;;;;;;;14.69;100.00;95774.41;5025871;28;20041;-81
2021/09/12 07:39:16;;;;;;;29.45;15.43;;;;;;;14.82;100.00;95772.88;5028527;28;20041;-81
2021/09/12 07:41:41;;;;;;;26.17;13.70;;;;;;;15.44;100.00;95769.16;5007792;28;20053;-81
2021/09/12 07:44:07;;;;;;;27.00;13.27;;;;;;;15.77;100.00;95775.97;5026577;28;20069;-82
2021/09/12 07:46:32;;;;;;;24.20;13.15;;;;;;;15.76;100.00;95769.06;5028881;28;20498;-80
2021/09/12 07:48:58;;;;;;;29.77;13.68;;;;;;;15.49;100.00;95774.41;5033022;28;20422;-81
2021/09/12 07:51:23;;;;;;;24.08;12.27;;;;;;;15.36;100.00;95766.13;5026563;28;20087;-81
2021/09/12 07:53:49;;;;;;;22.65;12.75;;;;;;;15.45;100.00;95768.09;5000794;28;20048;-81
2021/09/12 07:56:15;;;;;;;22.33;12.02;;;;;;;15.46;100.00;95765.16;5027902;28;20435;-80
2021/09/12 07:58:40;;;;;;;23.23;11.63;;;;;;;15.70;100.00;95772.91;5025259;28;20582;-81
2021/09/12 08:01:06;;;;;;;25.20;12.63;;;;;;;15.88;100.00;95770.47;5026297;28;20045;-81
2021/09/12 08:03:31;;;;;;;24.77;11.50;;;;;;;15.91;100.00;95761.91;5025427;28;20042;-78
2021/09/12 08:05:57;;;;;;;22.63;11.52;;;;;;;15.84;100.00;95769.50;5022927;28;20046;-79
2021/09/12 08:08:23;;;;;;;20.05;11.57;;;;;;;15.84;100.00;95764.19;5026879;28;20120;-77
2021/09/12 08:10:49;;;;;;;19.85;11.20;;;;;;;15.82;100.00;95767.13;5027976;28;20091;-77
2021/09/12 08:13:15;;;;;;;22.52;11.32;;;;;;;15.80;100.00;95763.97;5022916;28;20156;-77
2021/09/12 08:15:40;;;;;;;19.55;10.38;;;;;;;15.86;100.00;95773.44;5027709;28;20037;-77
2021/09/12 08:18:06;;;;;;;19.80;10.10;;;;;;;16.05;97.77;95773.31;5027002;28;20037;-76
2021/09/12 08:20:31;;;;;;;23.98;10.00;;;;;;;16.25;98.42;95776.63;5023988;28;20637;-77
2021/09/12 08:22:58;;;;;;;24.77;10.95;;;;;;;16.66;96.30;95775.69;5022802;28;20531;-77
2021/09/12 08:25:24;;;;;;;21.98;11.30;;;;;;;16.79;95.75;95772.19;5027933;28;20052;-79
2021/09/12 08:27:50;;;;;;;18.20;10.05;;;;;;;16.97;96.79;95769.69;5023398;28;20052;-78
2021/09/12 08:30:16;;;;;;;18.55;8.95;;;;;;;17.16;96.59;95768.69;5024167;28;20120;-76
2021/09/12 08:32:41;;;;;;;21.88;10.85;;;;;;;17.08;94.81;95773.66;5023369;28;20037;-76
2021/09/12 08:35:07;;;;;;;19.67;10.70;;;;;;;17.27;94.25;95770.00;5027226;28;20125;-77
2021/09/12 08:37:34;;;;;;;18.92;9.88;;;;;;;17.48;93.63;95775.56;5007165;28;20044;-77
2021/09/12 08:40:00;;;;;;;18.17;9.93;;;;;;;17.63;92.51;95767.16;5026580;28;20069;-77
2021/09/12 08:42:26;;;;;;;15.75;9.60;;;;;;;17.55;93.12;95780.44;5003512;28;20065;-77
2021/09/12 08:44:52;;;;;;;20.02;11.18;;;;;;;17.58;92.14;95766.53;5027258;28;20038;-77
2021/09/12 08:47:18;;;;;;;18.08;10.63;;;;;;;17.55;94.33;95775.13;5027213;28;20064;-78
2021/09/12 08:49:45;;;;;;;20.33;10.40;;;;;;;17.48;94.77;95771.03;5024820;28;20038;-78
2021/09/12 08:52:12;;;;;;;19.52;10.45;;;;;;;17.62;91.71;95770.16;5013028;28;20061;-77
2021/09/12 08:54:37;;;;;;;17.95;9.45;;;;;;;18.07;89.58;95767.31;5019027;28;20038;-77
2021/09/12 08:57:03;;;;;;;17.63;9.80;;;;;;;18.31;85.29;95774.09;5019635;28;20069;-81
2021/09/12 08:59:34;;;;;;;14.82;8.18;;;;;;;18.39;85.92;95767.97;5014224;28;20045;-80
2021/09/12 09:02:02;;;;;;;15.82;8.57;;;;;;;18.40;87.51;95772.19;5023826;28;20068;-81
2021/09/12 09:04:30;;;;;;;19.70;9.90;;;;;;;18.37;85.54;95767.50;5017130;28;20068;-83
2021/09/12 09:07:08;;;;;;;15.27;8.70;;;;;;;18.53;83.83;95759.81;5013641;28;20061;-84
2021/09/12 09:09:44;;;;;;;16.40;9.80;;;;;;;18.76;83.74;95768.44;5015340;28;20049;-80
2021/09/12 09:12:20;;;;;;;16.88;9.50;;;;;;;18.79;89.01;95767.81;5003920;28;20057;-79
2021/09/12 09:15:00;;;;;;;14.38;7.70;;;;;;;18.65;87.79;95767.19;5019217;28;20096;-78
2021/09/12 09:17:26;;;;;;;18.33;9.60;;;;;;;18.84;86.15;95764.97;5018150;28;20038;-79
2021/09/12 09:19:52;;;;;;;12.75;7.85;;;;;;;18.68;85.34;95766.56;5025884;28;20042;-78
2021/09/12 09:22:31;;;;;;;13.95;7.75;;;;;;;18.66;89.59;95763.41;5025652;28;20584;-78
2021/09/12 09:24:59;;;;;;;13.80;8.00;;;;;;;18.94;83.04;95760.44;5020941;28;20064;-78
2021/09/12 09:27:24;;;;;;;13.82;8.15;;;;;;;18.99;83.50;95757.59;5022420;28;20049;-79
2021/09/12 09:29:55;;;;;;;14.65;7.20;;;;;;;18.97;81.03;95762.47;5027892;28;20038;-81
2021/09/12 09:32:21;;;;;;;11.73;7.13;;;;;;;18.93;81.71;95766.88;5022843;28;20048;-76
2021/09/12 09:34:46;;;;;;;10.50;6.57;;;;;;;18.75;88.61;95761.53;4997899;28;20037;-75
2021/09/12 09:37:21;;;;;;;11.32;7.00;;;;;;;18.77;88.37;95754.00;5019142;28;20033;-75
2021/09/12 09:39:50;;;;;;;10.85;6.43;;;;;;;18.84;83.21;95759.63;5020012;28;20044;-76
2021/09/12 09:42:32;;;;;;;11.25;6.97;;;;;;;18.72;80.54;95751.50;5014830;28;20042;-75
2021/09/12 09:45:01;;;;;;;9.25;6.18;;;;;;;18.91;79.70;95753.09;5018559;28;20052;-76
2021/09/12 09:47:27;;;;;;;15.30;7.90;;;;;;;19.17;83.48;95751.13;5019241;28;20789;-75
2021/09/12 09:50:14;;;;;;;12.60;7.40;;;;;;;19.50;80.63;95747.88;5019674;28;20152;-75
2021/09/12 09:52:42;;;;;;;12.68;6.85;;;;;;;20.15;75.38;95744.25;5009871;28;20045;-76
2021/09/12 09:55:08;;;;;;;12.00;6.90;;;;;;;20.47;74.56;95740.06;5021209;28;20052;-76
2021/09/12 09:57:34;;;;;;;11.82;7.50;;;;;;;20.51;76.93;95735.63;5019905;28;20049;-76
2021/09/12 10:00:03;;;;;;;11.05;6.25;;;;;;;20.92;75.56;95739.38;5012512;28;20053;-78
2021/09/12 10:02:32;;;;;;;12.35;6.28;;;;;;;21.03;73.99;95738.97;5021464;28;20041;-78
2021/09/12 10:04:59;;;;;;;10.77;7.13;;;;;;;20.51;74.00;95740.97;5021321;28;20041;-79
2021/09/12 10:07:26;;;;;;;12.75;7.10;;;;;;;20.57;72.52;95734.34;5021895;28;20562;-76
2021/09/12 10:09:51;;;;;;;11.55;6.25;;;;;;;20.78;74.70;95733.53;5018123;28;20084;-79
2021/09/12 10:12:18;;;;;;;9.55;6.45;;;;;;;20.74;72.38;95732.63;5022608;28;20041;-78
2021/09/12 10:14:50;;;;;;;11.43;6.78;;;;;;;20.56;75.17;95727.44;5014961;28;20061;-79
2021/09/12 10:17:20;;;;;;;9.80;6.22;;;;;;;20.36;75.68;95723.66;5027751;28;20426;-77
2021/09/12 10:19:46;;;;;;;10.60;6.57;;;;;;;20.01;77.08;95725.78;5020668;28;20435;-77
2021/09/12 10:22:20;;;;;;;11.60;7.40;;;;;;;19.68;78.91;95721.09;5021539;28;20042;-77
2021/09/12 10:25:15;;;;;;;;;;;;;;;19.81;77.62;95720.13;5022914;28;20061;-78
2021/09/12 10:27:45;;;;;;;11.38;6.97;;;;;;;19.63;78.02;95718.63;5010152;28;19944;-76
2021/09/12 10:30:28;;;;;;;11.98;7.35;;;;;;;19.72;78.24;95722.81;5026436;28;20650;-76
2021/09/12 10:33:18;;;;;;;10.02;6.40;;;;;;;19.67;79.95;95714.22;5021008;28;20046;-76
2021/09/12 10:35:46;;;;;;;12.88;6.38;;;;;;;20.82;76.62;95721.09;5000260;28;20115;-78
2021/09/12 10:38:14;;;;;;;16.25;6.75;;;;;;;21.76;72.22;95708.03;5009333;28;20585;-77
2021/09/12 10:40:45;;;;;;;12.68;7.20;;;;;;;21.87;65.40;95705.69;5021562;28;20049;-76
2021/09/12 10:43:26;;;;;;;9.77;6.70;;;;;;;22.89;62.78;95704.72;5018559;28;20061;-76
2021/09/12 10:46:03;;;;;;;12.77;6.55;;;;;;;22.77;66.12;95697.47;5021697;28;20048;-73
2021/09/12 10:48:38;;;;;;;10.70;6.63;;;;;;;22.27;65.55;95697.66;5026267;28;20060;-75
2021/09/12 10:51:05;;;;;;;10.48;6.38;;;;;;;22.69;65.09;95693.06;5027066;28;20044;-74
2021/09/12 10:53:43;;;;;;;9.63;6.00;;;;;;;22.63;64.63;95692.53;5021213;28;20057;-73
2021/09/12 10:56:10;;;;;;;9.60;6.32;;;;;;;22.93;64.90;95692.13;5017823;28;20050;-73
2021/09/12 10:58:35;;;;;;;9.90;6.05;;;;;;;24.07;61.70;95684.47;5009701;28;20061;-75
2021/09/12 11:01:03;;;;;;;9.23;5.45;;;;;;;24.76;59.45;95686.59;5017382;28;20045;-75
2021/09/12 11:03:28;;;;;;;9.50;5.65;;;;;;;23.69;58.42;95687.47;5022398;28;20091;-73
2021/09/12 11:05:54;;;;;;;8.13;5.20;;;;;;;24.96;59.50;95690.81;4993699;28;20034;-75
2021/09/12 11:08:40;;;;;;;8.80;5.40;;;;;;;24.55;58.23;95688.50;5028148;28;20045;-75
2021/09/12 11:11:07;;;;;;;8.20;4.95;;;;;;;25.52;59.03;95684.03;5027824;28;20045;-74
2021/09/12 11:13:34;;;;;;;8.13;5.70;;;;;;;25.17;52.89;95694.97;5015740;28;20046;-74
2021/09/12 11:16:18;;;;;;;9.52;5.40;;;;;;;24.83;59.08;95686.72;5024280;28;20423;-75
2021/09/12 11:18:50;;;;;;;;;;;;;;;26.22;48.03;95681.16;5020768;28;20018;-73